createdAt,value
2019-05-17T00:01:00.793Z,91.00
2019-05-17T00:03:29.489Z,91.30
2019-05-17T00:05:51.420Z,91.30
2019-05-17T00:08:12.914Z,91.20
2019-05-17T00:10:34.430Z,91.10
2019-05-17T00:12:56.361Z,91.00
2019-05-17T00:15:18.053Z,90.90
2019-05-17T00:17:39.488Z,90.70
2019-05-17T00:20:00.824Z,91.00
2019-05-17T00:22:41.974Z,91.30
2019-05-17T00:25:07.377Z,91.10
2019-05-17T00:27:29.231Z,91.00
2019-05-17T00:29:50.661Z,91.00
2019-05-17T00:32:31.890Z,91.00
2019-05-17T00:34:53.320Z,91.00
2019-05-17T00:37:14.706Z,91.00
2019-05-17T00:39:36.765Z,91.00
2019-05-17T00:41:58.326Z,91.10
2019-05-17T00:44:19.716Z,91.00
2019-05-17T00:46:41.102Z,90.90
2019-05-17T00:49:02.745Z,91.00
2019-05-17T00:51:27.245Z,91.30
2019-05-17T00:53:48.428Z,91.30
2019-05-17T00:56:29.785Z,91.20
2019-05-17T00:58:51.061Z,91.30
2019-05-17T01:01:12.361Z,91.20
2019-05-17T01:03:33.648Z,91.10
2019-05-17T01:05:56.752Z,91.30
2019-05-17T01:08:18.470Z,91.30
2019-05-17T01:10:40.063Z,91.40
2019-05-17T01:13:01.383Z,91.10
2019-05-17T01:15:22.966Z,91.20
2019-05-17T01:17:47.145Z,91.30
2019-05-17T01:20:08.385Z,91.10
2019-05-17T01:22:29.722Z,91.10
2019-05-17T01:24:51.331Z,91.00
2019-05-17T01:27:12.744Z,91.10
2019-05-17T01:29:36.165Z,91.00
2019-05-17T01:31:57.373Z,91.10
2019-05-17T01:34:18.707Z,91.00
2019-05-17T01:36:40.079Z,91.10
2019-05-17T01:39:14.103Z,91.10
2019-05-17T01:41:26.676Z,91.10
2019-05-17T01:43:47.782Z,91.10
2019-05-17T01:46:09.065Z,91.10
2019-05-17T01:48:30.486Z,91.20
2019-05-17T01:50:52.256Z,91.30
2019-05-17T01:53:13.739Z,91.30
2019-05-17T01:55:37.204Z,91.50
2019-05-17T01:57:58.427Z,91.50
2019-05-17T02:00:19.922Z,91.50
2019-05-17T02:02:43.357Z,91.30
2019-05-17T02:05:06.432Z,91.40
2019-05-17T02:07:28.242Z,91.40
2019-05-17T02:10:09.490Z,91.50
2019-05-17T02:12:30.887Z,91.60
2019-05-17T02:14:52.293Z,91.60
2019-05-17T02:17:13.627Z,91.60
2019-05-17T02:19:37.026Z,91.70
2019-05-17T02:21:58.347Z,91.70
2019-05-17T02:24:19.738Z,91.70
2019-05-17T02:26:41.149Z,91.70
2019-05-17T02:29:02.533Z,91.70
2019-05-17T02:31:24.769Z,91.60
2019-05-17T02:33:46.371Z,91.60
2019-05-17T02:36:08.026Z,91.70
2019-05-17T02:38:32.849Z,91.80
2019-05-17T02:40:53.517Z,91.90
2019-05-17T02:43:15.227Z,91.80
2019-05-17T02:45:36.631Z,91.60
2019-05-17T02:47:58.028Z,91.60
2019-05-17T02:50:19.306Z,91.60
2019-05-17T02:52:43.836Z,91.60
2019-05-17T02:55:04.433Z,91.60
2019-05-17T02:57:25.803Z,91.40
2019-05-17T02:59:47.251Z,91.60
2019-05-17T03:02:08.632Z,91.60
2019-05-17T03:04:32.489Z,91.70
2019-05-17T03:06:53.529Z,91.50
2019-05-17T03:09:14.935Z,91.60
2019-05-17T03:11:36.322Z,91.70
2019-05-17T03:13:57.731Z,91.80
2019-05-17T03:16:19.130Z,91.60
2019-05-17T03:18:43.642Z,91.60
2019-05-17T03:21:04.186Z,91.50
2019-05-17T03:23:26.014Z,91.40
2019-05-17T03:25:47.702Z,91.40
2019-05-17T03:28:09.007Z,91.40
2019-05-17T03:30:35.499Z,91.30
2019-05-17T03:32:56.256Z,91.10
2019-05-17T03:35:18.060Z,91.00
2019-05-17T03:37:43.429Z,91.00
2019-05-17T03:40:21.666Z,90.80
2019-05-17T03:42:27.915Z,91.10
2019-05-17T03:44:49.213Z,90.70
2019-05-17T03:47:13.134Z,90.60
2019-05-17T03:49:33.815Z,90.60
2019-05-17T03:51:55.206Z,90.60
2019-05-17T03:54:16.689Z,90.50
2019-05-17T03:56:38.129Z,90.40
2019-05-17T03:58:59.518Z,90.50
2019-05-17T04:01:23.213Z,90.50
2019-05-17T04:03:44.248Z,90.60
2019-05-17T04:06:05.838Z,90.60
2019-05-17T04:08:27.106Z,90.70
2019-05-17T04:10:48.410Z,90.80
2019-05-17T04:13:12.704Z,90.80
2019-05-17T04:15:33.086Z,91.00
2019-05-17T04:18:14.746Z,90.70
2019-05-17T04:20:36.150Z,90.60
2019-05-17T04:23:06.698Z,90.50
2019-05-17T04:25:28.376Z,90.50
2019-05-17T04:27:53.370Z,90.50
2019-05-17T04:30:13.369Z,90.40
2019-05-17T04:32:35.282Z,90.00
2019-05-17T04:34:56.562Z,89.20
2019-05-17T04:37:18.159Z,87.30
2019-05-17T04:39:39.480Z,87.00
2019-05-17T04:42:03.726Z,87.10
2019-05-17T04:44:24.143Z,87.00
2019-05-17T04:46:45.459Z,87.00
2019-05-17T04:49:06.952Z,85.80
2019-05-17T04:51:28.537Z,84.90
2019-05-17T04:53:52.914Z,85.30
2019-05-17T04:56:14.006Z,84.20
2019-05-17T04:58:36.162Z,84.10
2019-05-17T05:00:57.466Z,83.90
2019-05-17T05:03:18.955Z,83.50
2019-05-17T05:05:42.785Z,83.70
2019-05-17T05:08:03.692Z,83.70
2019-05-17T05:10:25.036Z,83.60
2019-05-17T05:12:46.426Z,84.00
2019-05-17T05:15:08.794Z,84.50
2019-05-17T05:17:32.688Z,84.80
2019-05-17T05:19:53.338Z,84.50
2019-05-17T05:22:17.510Z,84.20
2019-05-17T05:24:38.299Z,84.00
2019-05-17T05:26:59.682Z,84.10
2019-05-17T05:29:21.633Z,82.90
2019-05-17T05:31:43.455Z,83.20
2019-05-17T05:34:04.985Z,83.10
2019-05-17T05:36:26.458Z,82.90
2019-05-17T05:38:48.366Z,82.00
2019-05-17T05:41:12.072Z,80.80
2019-05-17T05:43:33.225Z,79.20
2019-05-17T05:45:54.532Z,78.60
2019-05-17T05:48:16.026Z,79.20
2019-05-17T05:50:37.629Z,79.70
2019-05-17T05:53:01.782Z,80.00
2019-05-17T05:55:23.399Z,80.00
2019-05-17T05:57:45.163Z,79.00
2019-05-17T06:00:06.784Z,78.10
2019-05-17T06:02:28.189Z,78.40
2019-05-17T06:04:51.875Z,77.70
2019-05-17T06:07:13.141Z,78.00
2019-05-17T06:09:34.525Z,77.60
2019-05-17T06:11:56.006Z,77.00
2019-05-17T06:14:17.550Z,76.90
2019-05-17T06:16:39.131Z,76.30
2019-05-17T06:19:02.369Z,76.70
2019-05-17T06:21:38.270Z,75.20
2019-05-17T06:24:02.412Z,74.90
2019-05-17T06:26:23.743Z,75.10
2019-05-17T06:28:45.765Z,75.60
2019-05-17T06:31:07.438Z,75.20
2019-05-17T06:33:33.806Z,73.40
2019-05-17T06:35:52.608Z,72.50
2019-05-17T06:38:14.328Z,72.90
2019-05-17T06:40:35.730Z,72.10
2019-05-17T06:42:57.230Z,70.80
2019-05-17T06:45:18.814Z,70.70
2019-05-17T06:48:02.351Z,70.20
2019-05-17T06:50:23.715Z,69.80
2019-05-17T06:52:45.341Z,69.50
2019-05-17T06:55:06.882Z,67.80
2019-05-17T06:57:28.819Z,66.60
2019-05-17T06:59:50.204Z,66.50
2019-05-17T07:02:11.962Z,65.80
2019-05-17T07:04:33.424Z,64.10
2019-05-17T07:07:13.758Z,63.40
2019-05-17T07:09:36.106Z,64.80
2019-05-17T07:11:59.599Z,64.00
2019-05-17T07:14:21.261Z,64.60
2019-05-17T07:16:42.988Z,63.90
2019-05-17T07:19:04.277Z,63.50
2019-05-17T07:21:25.691Z,63.10
2019-05-17T07:23:46.973Z,63.70
2019-05-17T07:26:11.363Z,62.00
2019-05-17T07:28:31.785Z,61.70
2019-05-17T07:30:53.195Z,62.00
2019-05-17T07:33:14.793Z,62.60
2019-05-17T07:35:36.409Z,62.40
2019-05-17T07:37:59.570Z,62.00
2019-05-17T07:40:20.985Z,61.60
2019-05-17T07:42:42.385Z,61.70
2019-05-17T07:45:06.211Z,60.70
2019-05-17T07:47:29.463Z,60.80
2019-05-17T07:49:50.702Z,61.70
2019-05-17T07:52:12.209Z,62.10
2019-05-17T07:54:33.943Z,60.70
2019-05-17T07:56:55.370Z,60.80
2019-05-17T07:59:19.942Z,60.70
2019-05-17T08:01:41.774Z,60.60
2019-05-17T08:04:03.210Z,59.90
2019-05-17T08:06:24.486Z,61.10
2019-05-17T08:08:45.867Z,61.60
2019-05-17T08:11:07.484Z,62.00
2019-05-17T08:13:31.358Z,61.30
2019-05-17T08:15:52.521Z,60.80
2019-05-17T08:18:14.081Z,61.10
2019-05-17T08:20:35.478Z,62.90
2019-05-17T08:22:59.444Z,63.60
2019-05-17T08:25:21.208Z,62.50
2019-05-17T08:27:42.479Z,62.80
2019-05-17T08:30:05.365Z,62.70
2019-05-17T08:32:26.796Z,63.70
2019-05-17T08:34:49.533Z,61.60
2019-05-17T08:37:11.225Z,61.90
2019-05-17T08:39:32.838Z,63.10
2019-05-17T08:41:54.229Z,62.40
2019-05-17T08:44:15.642Z,62.80
2019-05-17T08:46:39.402Z,63.30
2019-05-17T08:49:00.485Z,63.20
2019-05-17T08:51:22.004Z,63.70
2019-05-17T08:53:43.303Z,63.20
2019-05-17T08:56:04.586Z,62.00
2019-05-17T08:58:25.873Z,63.30
2019-05-17T09:00:50.605Z,63.50
2019-05-17T09:03:12.303Z,62.80
2019-05-17T09:05:33.591Z,63.50
2019-05-17T09:07:55.102Z,62.80
2019-05-17T09:10:17.098Z,64.00
2019-05-17T09:12:40.576Z,62.30
2019-05-17T09:15:01.721Z,62.50
2019-05-17T09:17:23.022Z,61.50
2019-05-17T09:19:44.494Z,61.00
2019-05-17T09:22:06.145Z,60.60
2019-05-17T09:24:27.427Z,59.50
2019-05-17T09:26:49.331Z,59.20
2019-05-17T09:29:10.947Z,59.40
2019-05-17T09:31:32.572Z,59.20
2019-05-17T09:33:54.047Z,59.40
2019-05-17T09:36:15.872Z,59.10
2019-05-17T09:38:37.145Z,60.60
2019-05-17T09:40:59.961Z,59.90
2019-05-17T09:43:22.011Z,59.50
2019-05-17T09:45:43.403Z,59.30
2019-05-17T09:48:04.716Z,58.70
2019-05-17T09:50:26.231Z,60.60
2019-05-17T09:52:49.436Z,58.90
2019-05-17T09:55:12.741Z,58.40
2019-05-17T09:57:34.387Z,58.30
2019-05-17T09:59:56.060Z,57.40
2019-05-17T10:02:17.383Z,58.00
2019-05-17T10:04:39.511Z,57.40
2019-05-17T10:07:01.388Z,57.00
2019-05-17T10:09:22.888Z,58.30
2019-05-17T10:11:44.513Z,57.20
2019-05-17T10:14:05.993Z,57.30
2019-05-17T10:16:27.537Z,57.00
2019-05-17T10:18:48.918Z,57.80
2019-05-17T10:21:10.632Z,57.60
2019-05-17T10:23:32.193Z,57.50
2019-05-17T10:25:53.866Z,58.70
2019-05-17T10:28:15.244Z,57.50
2019-05-17T10:30:36.526Z,56.80
2019-05-17T10:32:59.995Z,57.00
2019-05-17T10:35:21.072Z,57.00
2019-05-17T10:37:43.314Z,56.60
2019-05-17T10:40:05.624Z,56.20
2019-05-17T10:42:26.942Z,57.10
2019-05-17T10:44:51.404Z,57.10
2019-05-17T10:47:11.326Z,57.10
2019-05-17T10:49:32.870Z,56.60
2019-05-17T10:51:54.465Z,57.80
2019-05-17T10:54:16.059Z,56.20
2019-05-17T10:56:37.396Z,55.80
2019-05-17T10:59:00.099Z,56.50
2019-05-17T11:01:21.766Z,57.00
2019-05-17T11:03:43.380Z,56.90
2019-05-17T11:06:04.985Z,56.70
2019-05-17T11:08:26.581Z,57.20
2019-05-17T11:10:50.054Z,57.00
2019-05-17T11:13:11.101Z,57.40
2019-05-17T11:15:52.286Z,57.70
2019-05-17T11:18:13.764Z,57.30
2019-05-17T11:20:35.280Z,57.30
2019-05-17T11:22:56.813Z,56.50
2019-05-17T11:25:18.320Z,56.90
2019-05-17T11:27:39.794Z,56.80
2019-05-17T11:30:01.474Z,57.20
2019-05-17T11:32:22.967Z,55.70
2019-05-17T11:34:44.378Z,55.90
2019-05-17T11:37:05.909Z,55.30
2019-05-17T11:39:28.388Z,55.10
2019-05-17T11:41:49.646Z,54.70
2019-05-17T11:44:11.422Z,55.00
2019-05-17T11:46:36.152Z,55.00
2019-05-17T11:48:56.108Z,54.60
2019-05-17T11:51:17.407Z,55.00
2019-05-17T11:53:38.795Z,54.70
2019-05-17T11:56:00.398Z,54.00
2019-05-17T11:58:21.722Z,54.30
2019-05-17T12:00:45.430Z,55.20
2019-05-17T12:03:06.719Z,54.70
2019-05-17T12:05:28.151Z,53.70
2019-05-17T12:07:55.651Z,54.60
2019-05-17T12:10:17.050Z,54.20
2019-05-17T12:12:38.582Z,53.90
2019-05-17T12:14:59.901Z,53.50
2019-05-17T12:17:21.449Z,55.00
2019-05-17T12:19:42.851Z,54.70
2019-05-17T12:22:04.720Z,54.80
2019-05-17T12:24:26.316Z,55.10
2019-05-17T12:26:47.847Z,54.90
2019-05-17T12:29:09.228Z,54.00
2019-05-17T12:31:30.707Z,53.20
2019-05-17T12:33:52.372Z,53.20
2019-05-17T12:36:14.091Z,53.60
2019-05-17T12:38:35.430Z,53.50
2019-05-17T12:40:57.508Z,53.50
2019-05-17T12:43:18.906Z,53.50
2019-05-17T12:45:40.700Z,54.00
2019-05-17T12:48:02.141Z,53.30
2019-05-17T12:50:23.427Z,52.50
2019-05-17T12:52:45.028Z,52.40
2019-05-17T12:55:06.649Z,53.10
2019-05-17T12:57:47.978Z,52.20
2019-05-17T13:00:10.593Z,52.50
2019-05-17T13:02:31.906Z,53.10
2019-05-17T13:04:53.436Z,53.30
2019-05-17T13:07:14.948Z,53.30
2019-05-17T13:09:36.541Z,52.30
2019-05-17T13:11:58.039Z,52.50
2019-05-17T13:14:19.588Z,51.40
2019-05-17T13:16:41.081Z,51.50
2019-05-17T13:19:02.455Z,51.80
2019-05-17T13:21:24.288Z,51.30
2019-05-17T13:23:45.787Z,50.90
2019-05-17T13:26:07.730Z,51.40
2019-05-17T13:28:29.048Z,51.00
2019-05-17T13:30:50.574Z,50.90
2019-05-17T13:33:11.986Z,49.70
2019-05-17T13:35:33.432Z,49.30
2019-05-17T13:37:54.821Z,49.10
2019-05-17T13:40:16.212Z,49.50
2019-05-17T13:42:37.793Z,49.70
2019-05-17T13:44:59.291Z,49.20
2019-05-17T13:47:20.762Z,49.60
2019-05-17T13:49:42.383Z,49.10
2019-05-17T13:52:03.758Z,49.40
2019-05-17T13:54:25.425Z,49.40
2019-05-17T13:56:46.803Z,50.30
2019-05-17T13:59:08.438Z,50.50
2019-05-17T14:01:30.881Z,51.50
2019-05-17T14:03:52.331Z,52.20
2019-05-17T14:06:13.665Z,52.60
2019-05-17T14:08:35.105Z,53.10
2019-05-17T14:10:56.592Z,52.70
2019-05-17T14:13:17.977Z,52.20
2019-05-17T14:15:39.639Z,52.10
2019-05-17T14:18:01.016Z,52.20
2019-05-17T14:20:22.510Z,53.20
2019-05-17T14:22:43.873Z,52.60
2019-05-17T14:25:06.208Z,52.60
2019-05-17T14:27:27.744Z,53.00
2019-05-17T14:29:49.257Z,52.00
2019-05-17T14:32:10.939Z,51.80
2019-05-17T14:34:32.567Z,52.00
2019-05-17T14:36:54.222Z,52.20
2019-05-17T14:39:15.711Z,52.40
2019-05-17T14:41:37.179Z,52.10
2019-05-17T14:43:59.711Z,51.70
2019-05-17T14:46:21.210Z,51.90
2019-05-17T14:48:42.578Z,51.20
2019-05-17T14:51:04.010Z,51.20
2019-05-17T14:53:25.514Z,50.90
2019-05-17T14:55:47.020Z,50.80
2019-05-17T14:58:08.571Z,51.90
2019-05-17T15:00:35.955Z,52.00
2019-05-17T15:02:57.983Z,51.80
2019-05-17T15:05:19.647Z,51.10
2019-05-17T15:07:41.043Z,51.80
2019-05-17T15:10:04.946Z,52.30
2019-05-17T15:12:28.657Z,51.90
2019-05-17T15:14:49.610Z,51.50
2019-05-17T15:17:11.003Z,51.00
2019-05-17T15:19:32.417Z,51.30
2019-05-17T15:21:53.906Z,50.60
2019-05-17T15:24:15.433Z,50.70
2019-05-17T15:26:36.845Z,50.80
2019-05-17T15:28:58.349Z,50.30
2019-05-17T15:31:19.934Z,50.70
2019-05-17T15:33:41.481Z,49.90
2019-05-17T15:36:02.939Z,49.90
2019-05-17T15:38:24.390Z,49.60
2019-05-17T15:40:46.075Z,49.20
2019-05-17T15:43:07.659Z,49.60
2019-05-17T15:45:29.490Z,50.70
2019-05-17T15:47:50.828Z,50.70
2019-05-17T15:50:14.230Z,49.80
2019-05-17T15:52:35.717Z,49.50
2019-05-17T15:54:57.371Z,49.40
2019-05-17T15:57:19.348Z,49.50
2019-05-17T15:59:41.046Z,50.10
2019-05-17T16:02:16.400Z,50.10
2019-05-17T16:04:38.139Z,50.40
2019-05-17T16:06:59.636Z,51.00
2019-05-17T16:09:21.071Z,50.90
2019-05-17T16:11:42.473Z,51.30
2019-05-17T16:14:04.181Z,51.20
2019-05-17T16:16:25.700Z,51.70
2019-05-17T16:18:47.657Z,51.80
2019-05-17T16:21:09.049Z,52.40
2019-05-17T16:23:30.470Z,52.60
2019-05-17T16:25:51.868Z,52.50
2019-05-17T16:28:13.498Z,53.10
2019-05-17T16:30:34.905Z,53.30
2019-05-17T16:32:56.198Z,53.70
2019-05-17T16:35:17.686Z,53.70
2019-05-17T16:37:39.131Z,54.40
2019-05-17T16:40:20.270Z,53.90
2019-05-17T16:42:41.898Z,53.80
2019-05-17T16:45:05.215Z,54.20
2019-05-17T16:47:26.865Z,54.50
2019-05-17T16:49:48.379Z,54.60
2019-05-17T16:52:29.714Z,54.80
2019-05-17T16:54:51.241Z,54.80
2019-05-17T16:57:12.775Z,55.20
2019-05-17T16:59:34.242Z,55.50
2019-05-17T17:01:55.725Z,55.70
2019-05-17T17:04:17.211Z,56.00
2019-05-17T17:06:38.597Z,56.30
2019-05-17T17:09:00.270Z,56.50
2019-05-17T17:11:21.551Z,56.50
2019-05-17T17:13:42.929Z,56.50
2019-05-17T17:16:04.371Z,56.70
2019-05-17T17:18:25.782Z,56.70
2019-05-17T17:20:47.404Z,56.70
2019-05-17T17:23:09.057Z,56.90
2019-05-17T17:25:30.845Z,57.10
2019-05-17T17:27:52.439Z,57.10
2019-05-17T17:30:13.974Z,57.20
2019-05-17T17:32:35.565Z,57.20
2019-05-17T17:34:56.850Z,57.30
2019-05-17T17:37:18.186Z,57.60
2019-05-17T17:39:39.524Z,57.40
2019-05-17T17:42:00.985Z,57.60
2019-05-17T17:44:22.310Z,57.90
2019-05-17T17:46:43.946Z,57.90
2019-05-17T17:49:05.446Z,57.60
2019-05-17T17:51:26.897Z,57.90
2019-05-17T17:53:48.300Z,58.70
2019-05-17T17:56:13.006Z,58.60
2019-05-17T17:58:33.055Z,58.50
2019-05-17T18:00:54.451Z,59.20
2019-05-17T18:03:15.839Z,58.90
2019-05-17T18:05:37.142Z,59.00
2019-05-17T18:07:58.445Z,58.90
2019-05-17T18:10:31.174Z,59.30
2019-05-17T18:12:53.035Z,59.60
2019-05-17T18:15:14.687Z,59.90
2019-05-17T18:17:39.347Z,59.90
2019-05-17T18:19:59.450Z,60.40
2019-05-17T18:22:20.852Z,60.80
2019-05-17T18:24:42.124Z,60.40
2019-05-17T18:27:03.643Z,60.60
2019-05-17T18:29:25.445Z,60.40
2019-05-17T18:31:46.970Z,60.70
2019-05-17T18:34:08.256Z,61.00
2019-05-17T18:36:29.846Z,61.60
2019-05-17T18:38:51.723Z,62.20
2019-05-17T18:41:13.551Z,63.00
2019-05-17T18:43:34.929Z,63.50
2019-05-17T18:45:59.215Z,64.10
2019-05-17T18:48:20.419Z,64.80
2019-05-17T18:50:41.896Z,65.10
2019-05-17T18:53:23.247Z,65.50
2019-05-17T18:55:44.617Z,65.70
2019-05-17T18:58:06.013Z,66.80
2019-05-17T19:00:27.437Z,66.70
2019-05-17T19:02:49.602Z,66.90
2019-05-17T19:05:10.972Z,67.10
2019-05-17T19:07:32.416Z,68.10
2019-05-17T19:09:53.691Z,68.10
2019-05-17T19:12:15.295Z,68.90
2019-05-17T19:14:43.043Z,68.70
2019-05-17T19:17:00.026Z,68.80
2019-05-17T19:19:21.422Z,68.70
2019-05-17T19:21:43.363Z,69.30
2019-05-17T19:24:04.963Z,69.40
2019-05-17T19:26:26.541Z,69.30
2019-05-17T19:28:47.866Z,69.50
2019-05-17T19:31:09.461Z,69.90
2019-05-17T19:33:31.231Z,70.40
2019-05-17T19:36:12.500Z,71.10
2019-05-17T19:38:34.223Z,71.30
2019-05-17T19:40:55.538Z,71.80
2019-05-17T19:43:17.166Z,72.00
2019-05-17T19:45:38.563Z,72.30
2019-05-17T19:47:59.938Z,72.50
2019-05-17T19:50:21.483Z,73.00
2019-05-17T19:52:43.143Z,73.40
2019-05-17T19:55:04.655Z,73.50
2019-05-17T19:57:25.965Z,74.10
2019-05-17T19:59:47.351Z,74.40
2019-05-17T20:02:09.343Z,75.10
2019-05-17T20:04:30.597Z,75.30
2019-05-17T20:06:52.550Z,75.40
2019-05-17T20:09:14.099Z,75.50
2019-05-17T20:11:35.585Z,76.00
2019-05-17T20:13:57.178Z,75.70
2019-05-17T20:16:18.764Z,75.70
2019-05-17T20:18:40.033Z,75.80
2019-05-17T20:21:01.633Z,76.50
2019-05-17T20:23:23.307Z,76.00
2019-05-17T20:25:44.890Z,76.30
2019-05-17T20:28:06.276Z,76.50
2019-05-17T20:30:27.958Z,76.70
2019-05-17T20:32:49.420Z,76.80
2019-05-17T20:35:11.043Z,76.80
2019-05-17T20:37:32.813Z,76.70
2019-05-17T20:39:54.303Z,77.00
2019-05-17T20:42:15.810Z,77.30
2019-05-17T20:45:08.882Z,77.30
2019-05-17T20:47:31.123Z,77.80
2019-05-17T20:49:52.528Z,77.70
2019-05-17T20:52:14.933Z,77.50
2019-05-17T20:54:36.310Z,77.20
2019-05-17T20:56:58.095Z,77.30
2019-05-17T20:59:19.721Z,77.50
2019-05-17T21:01:41.126Z,77.70
2019-05-17T21:04:03.159Z,77.90
2019-05-17T21:06:24.685Z,78.10
2019-05-17T21:08:46.798Z,78.30
2019-05-17T21:11:08.208Z,78.50
2019-05-17T21:13:29.653Z,78.70
2019-05-17T21:15:51.756Z,78.90
2019-05-17T21:18:13.237Z,79.40
2019-05-17T21:20:34.553Z,79.60
2019-05-17T21:22:56.507Z,79.90
2019-05-17T21:25:32.191Z,80.00
2019-05-17T21:27:53.609Z,80.50
2019-05-17T21:30:15.498Z,80.80
2019-05-17T21:32:37.357Z,80.90
2019-05-17T21:34:59.080Z,81.20
2019-05-17T21:37:20.710Z,81.50
2019-05-17T21:39:42.762Z,81.60
2019-05-17T21:42:04.691Z,82.50
2019-05-17T21:44:27.200Z,82.00
2019-05-17T21:47:03.860Z,82.10
2019-05-17T21:49:12.112Z,82.40
2019-05-17T21:51:33.691Z,82.70
2019-05-17T21:53:55.932Z,82.50
2019-05-17T21:56:17.599Z,82.70
2019-05-17T21:58:40.000Z,82.90
2019-05-17T22:01:22.045Z,83.00
2019-05-17T22:03:43.437Z,83.00
2019-05-17T22:06:04.818Z,82.70
2019-05-17T22:08:26.368Z,82.80
2019-05-17T22:10:49.010Z,82.60
2019-05-17T22:13:10.395Z,83.10
2019-05-17T22:15:31.940Z,82.90
2019-05-17T22:17:53.340Z,82.70
2019-05-17T22:20:14.597Z,82.10
2019-05-17T22:22:36.154Z,81.90
2019-05-17T22:24:57.542Z,82.00
2019-05-17T22:27:19.051Z,82.20
2019-05-17T22:29:41.178Z,82.20
2019-05-17T22:32:02.870Z,82.10
2019-05-17T22:34:24.157Z,82.00
2019-05-17T22:36:45.476Z,82.00
2019-05-17T22:39:26.614Z,82.00
2019-05-17T22:41:48.133Z,82.20
2019-05-17T22:44:09.521Z,82.10
2019-05-17T22:46:36.238Z,82.10
2019-05-17T22:48:54.055Z,82.10
2019-05-17T22:51:15.451Z,82.20
2019-05-17T22:53:37.452Z,82.40
2019-05-17T22:55:58.891Z,82.50
2019-05-17T22:58:20.694Z,82.80
2019-05-17T23:00:42.269Z,83.50
2019-05-17T23:03:03.697Z,83.10
2019-05-17T23:05:26.237Z,83.20
2019-05-17T23:07:48.093Z,83.50
2019-05-17T23:10:09.612Z,84.40
2019-05-17T23:12:31.008Z,83.70
2019-05-17T23:14:52.495Z,84.00
2019-05-17T23:17:13.801Z,84.00
2019-05-17T23:19:35.284Z,84.30
2019-05-17T23:21:56.575Z,84.50
2019-05-17T23:24:18.000Z,84.50
2019-05-17T23:26:39.476Z,84.60
2019-05-17T23:29:00.789Z,84.70
2019-05-17T23:31:22.161Z,84.80
2019-05-17T23:33:43.537Z,85.20
2019-05-17T23:36:04.944Z,85.20
2019-05-17T23:38:26.265Z,85.20
2019-05-17T23:40:47.641Z,85.10
2019-05-17T23:43:09.221Z,84.90
2019-05-17T23:45:30.860Z,84.80
2019-05-17T23:47:52.345Z,84.20
2019-05-17T23:50:15.037Z,83.90
2019-05-17T23:52:36.597Z,83.70
2019-05-17T23:54:57.889Z,83.70
2019-05-17T23:57:19.287Z,84.10
2019-05-17T23:59:41.354Z,84.80
